Time;durP1;ratioP1;P1;durP2;ratioP2;P2;SDS_P1;SDS_P2;PMS_P1;PMS_P2;Temp;Humidity;BMP_temperature;BMP_pressure;BME280_temperature;BME280_humidity;BME280_pressure;Samples;Min_cycle;Max_cycle;Signal;HPM_P1;HPM_P2
2021/12/24 00:00:16;;;;;;;98.45;47.80;;;;;;;6.47;100.00;100379.78;6276419;22;20027;-86
2021/12/24 00:02:42;;;;;;;90.20;44.65;;;;;;;6.12;100.00;100319.72;6249894;22;20008;-86
2021/12/24 00:05:08;;;;;;;97.03;46.63;;;;;;;6.09;100.00;100310.16;6224512;22;20087;-85
2021/12/24 00:07:34;;;;;;;94.50;46.90;;;;;;;6.46;100.00;100378.09;6224473;22;20355;-85
2021/12/24 00:09:59;;;;;;;83.13;43.05;;;;;;;5.99;100.00;100295.41;6250143;22;20010;-86
2021/12/24 00:12:28;;;;;;;71.28;38.55;;;;;;;6.45;100.00;100365.69;6249888;22;20035;-86
2021/12/24 00:14:58;;;;;;;81.85;45.28;;;;;;;6.23;100.00;100337.16;6225983;22;20007;-86
2021/12/24 00:17:29;;;;;;;86.35;44.75;;;;;;;6.48;100.00;100369.81;6249359;22;20526;-86
2021/12/24 00:36:00;;;;;;;76.72;40.72;;;;;;;6.61;100.00;100364.50;6276056;22;20058;-86
2021/12/24 00:38:26;;;;;;;75.07;43.22;;;;;;;6.55;100.00;100334.81;6224123;22;20382;-86
2021/12/24 00:40:52;;;;;;;79.75;43.15;;;;;;;6.56;100.00;100340.00;6224212;22;20004;-85
2021/12/24 00:43:21;;;;;;;76.07;41.90;;;;;;;6.69;100.00;100350.03;6224319;22;20057;-86
2021/12/24 00:45:49;;;;;;;80.32;42.75;;;;;;;6.34;100.00;100287.28;6249476;22;20379;-86
2021/12/24 00:48:16;;;;;;;79.68;43.05;;;;;;;6.46;100.00;100310.72;6249414;22;20056;-86
2021/12/24 00:51:06;;;;;;;81.80;43.45;;;;;;;6.20;100.00;100262.13;6249391;22;20003;-86
2021/12/24 00:56:08;;;;;;;78.18;44.72;;;;;;;6.72;100.00;100335.28;6250284;22;20011;-86
2021/12/24 00:58:38;;;;;;;62.40;38.03;;;;;;;6.19;100.00;100250.53;6251831;22;20083;-86
2021/12/24 01:01:06;;;;;;;75.22;42.55;;;;;;;6.49;100.00;100298.72;6249266;22;20008;-86
2021/12/24 01:03:32;;;;;;;80.35;44.78;;;;;;;6.55;100.00;100297.91;6248989;22;20038;-86
2021/12/24 01:05:58;;;;;;;78.45;44.58;;;;;;;6.06;100.00;100229.75;6249420;22;20004;-87
2021/12/24 01:08:24;;;;;;;77.32;44.10;;;;;;;6.76;100.00;100326.63;6276357;22;20004;-86
2021/12/24 01:10:58;;;;;;;78.95;44.53;;;;;;;6.74;100.00;100314.38;6248786;22;20057;-87
2021/12/24 01:13:27;;;;;;;81.22;45.17;;;;;;;6.47;100.00;100271.16;6277030;22;19992;-87
2021/12/24 01:21:40;;;;;;;99.97;49.85;;;;;;;6.97;100.00;100320.22;6286802;22;20069;-86
2021/12/24 01:24:11;;;;;;;109.82;53.13;;;;;;;6.94;100.00;100314.41;6248951;22;20007;-86
2021/12/24 01:26:45;;;;;;;105.00;51.33;;;;;;;6.88;100.00;100302.59;6276193;22;20085;-86
2021/12/24 01:40:06;;;;;;;127.18;58.47;;;;;;;7.03;100.00;100324.78;6253195;22;20462;-87
2021/12/24 01:45:17;;;;;;;149.45;65.57;;;;;;;7.22;100.00;100329.59;6253041;22;20081;-86
2021/12/24 01:47:47;;;;;;;146.57;61.17;;;;;;;7.18;100.00;100321.91;6275781;22;19999;-86
2021/12/24 01:50:13;;;;;;;141.30;62.38;;;;;;;7.26;100.00;100315.47;6249459;22;20086;-86
2021/12/24 01:52:39;;;;;;;146.52;66.43;;;;;;;7.03;100.00;100299.69;6224413;22;20431;-86
2021/12/24 01:55:09;;;;;;;148.77;66.25;;;;;;;7.35;100.00;100330.44;6223621;22;20006;-87
2021/12/24 01:57:36;;;;;;;127.68;61.42;;;;;;;7.40;100.00;100334.38;6248506;22;20015;-87
2021/12/24 02:00:05;;;;;;;147.60;64.90;;;;;;;7.38;100.00;100321.94;6248630;22;20484;-87
2021/12/24 02:02:31;;;;;;;135.70;64.82;;;;;;;7.22;100.00;100295.38;6275219;22;20077;-87
2021/12/24 02:04:56;;;;;;;135.90;64.47;;;;;;;6.79;100.00;100220.19;6223274;22;20012;-87
2021/12/24 02:07:26;;;;;;;119.80;58.78;;;;;;;7.20;100.00;100276.69;6248499;22;20008;-86
2021/12/24 02:09:54;;;;;;;137.55;63.78;;;;;;;7.45;100.00;100321.91;6275873;22;20003;-86
2021/12/24 02:12:22;;;;;;;123.90;60.15;;;;;;;6.90;100.00;100237.66;6249024;22;20008;-86
2021/12/24 02:14:51;;;;;;;128.98;60.83;;;;;;;6.80;100.00;100224.56;6198944;22;19999;-86
2021/12/24 02:30:43;;;;;;;117.28;58.30;;;;;;;7.44;100.00;100303.25;6252813;22;20042;-87
2021/12/24 02:33:08;;;;;;;141.85;64.88;;;;;;;7.35;100.00;100295.38;6248841;22;20004;-86
2021/12/24 02:35:35;;;;;;;138.27;62.60;;;;;;;7.55;100.00;100319.63;6275461;22;20030;-87
2021/12/24 02:38:02;;;;;;;146.80;66.60;;;;;;;7.57;100.00;100318.59;6275013;22;20126;-87
2021/12/24 02:40:28;;;;;;;149.65;69.82;;;;;;;6.91;100.00;100213.19;6248752;22;20008;-86
2021/12/24 02:42:57;;;;;;;146.27;67.25;;;;;;;7.39;100.00;100276.88;6248110;22;20090;-86
2021/12/24 02:45:24;;;;;;;155.00;70.32;;;;;;;7.51;100.00;100299.53;6248286;22;20015;-87
2021/12/24 02:56:04;;;;;;;158.52;68.38;;;;;;;7.38;100.00;100264.41;6197379;22;20011;-86
2021/12/24 02:58:44;;;;;;;183.40;76.43;;;;;;;7.49;100.00;100282.69;6248623;22;20057;-86
2021/12/24 03:01:12;;;;;;;179.68;74.60;;;;;;;7.28;100.00;100254.06;6248295;22;20004;-86
2021/12/24 03:03:38;;;;;;;172.30;71.82;;;;;;;7.64;100.00;100304.06;6248147;22;20007;-86
2021/12/24 03:06:05;;;;;;;177.07;75.10;;;;;;;7.37;100.00;100262.78;6248353;22;20510;-86
2021/12/24 03:08:34;;;;;;;182.95;77.38;;;;;;;7.41;100.00;100264.03;6222933;22;20008;-86
2021/12/24 03:11:00;;;;;;;172.18;72.95;;;;;;;7.60;100.00;100294.72;6274938;22;20007;-86
2021/12/24 03:13:26;;;;;;;189.77;76.07;;;;;;;7.28;100.00;100247.81;6275297;22;20475;-87
2021/12/24 03:15:57;;;;;;;197.65;77.35;;;;;;;7.40;100.00;100258.81;6248522;22;20083;-87
2021/12/24 03:18:27;;;;;;;190.35;76.65;;;;;;;7.67;100.00;100310.91;6275327;22;20050;-87
2021/12/24 03:21:30;;;;;;;187.55;75.65;;;;;;;7.35;100.00;100257.59;6248657;22;20386;-87
2021/12/24 03:26:33;;;;;;;152.23;68.18;;;;;;;7.44;100.00;100265.44;6275383;22;20087;-87
2021/12/24 03:28:59;;;;;;;182.50;75.30;;;;;;;7.71;100.00;100314.88;6274747;22;20073;-87
2021/12/24 03:31:25;;;;;;;174.18;69.35;;;;;;;7.39;100.00;100260.69;6222999;22;20324;-87
2021/12/24 03:33:53;;;;;;;181.43;75.90;;;;;;;7.66;100.00;100320.03;6222947;22;20008;-86
2021/12/24 03:36:20;;;;;;;186.68;74.65;;;;;;;7.11;100.00;100229.34;6248072;22;20014;-87
2021/12/24 03:38:46;;;;;;;176.07;73.30;;;;;;;7.09;100.00;100228.72;6248105;22;20334;-86
2021/12/24 03:41:12;;;;;;;164.30;70.30;;;;;;;7.46;100.00;100287.69;6223067;22;20008;-86
2021/12/24 03:43:37;;;;;;;172.57;72.85;;;;;;;7.13;100.00;100234.53;6247910;22;20054;-86
2021/12/24 03:46:08;;;;;;;175.80;72.70;;;;;;;7.10;100.00;100235.78;6247653;22;20003;-86
2021/12/24 03:56:28;;;;;;;170.85;70.18;;;;;;;7.73;100.00;100326.28;6252394;22;20081;-86
2021/12/24 03:58:53;;;;;;;170.75;69.30;;;;;;;7.40;100.00;100278.53;6222954;22;20008;-86
2021/12/24 04:01:19;;;;;;;155.60;64.72;;;;;;;7.43;100.00;100270.03;6248122;22;20030;-86
2021/12/24 04:03:44;;;;;;;149.00;62.05;;;;;;;7.78;100.00;100322.94;6274433;22;20003;-86
2021/12/24 04:06:10;;;;;;;134.30;58.10;;;;;;;7.51;100.00;100286.03;6247916;22;20104;-86
2021/12/24 04:08:36;;;;;;;141.95;61.03;;;;;;;7.56;100.00;100280.00;6222715;22;20077;-86
2021/12/24 04:11:02;;;;;;;127.65;55.35;;;;;;;7.77;100.00;100314.03;6222841;22;20320;-86
2021/12/24 04:13:28;;;;;;;136.02;57.38;;;;;;;7.47;100.00;100278.53;6276686;22;19999;-86
2021/12/24 04:15:53;;;;;;;119.47;53.85;;;;;;;7.70;100.00;100307.78;6199372;22;20007;-86
2021/12/24 04:18:37;;;;;;;119.90;52.50;;;;;;;7.73;100.00;100323.56;6249963;22;20039;-86
2021/12/24 04:26:33;;;;;;;98.22;44.45;;;;;;;7.72;100.00;100319.19;6277003;22;20022;-86
2021/12/24 04:28:59;;;;;;;96.75;43.35;;;;;;;7.62;100.00;100303.44;6224622;22;20098;-87
2021/12/24 04:31:38;;;;;;;79.85;37.45;;;;;;;7.28;100.00;100262.16;6224401;22;20010;-86
2021/12/24 04:34:04;;;;;;;64.25;34.30;;;;;;;7.34;100.00;100268.59;6226968;22;20445;-88
2021/12/24 05:03:12;;;;;;;58.17;28.52;;;;;;;7.70;100.00;100313.19;6276421;22;20050;-87
2021/12/24 05:05:51;;;;;;;48.90;29.27;;;;;;;7.63;100.00;100309.66;6249241;22;20378;-86
2021/12/24 05:10:44;;;;;;;48.15;28.08;;;;;;;7.41;100.00;100276.66;6286702;22;20011;-86
2021/12/24 05:13:13;;;;;;;51.42;27.52;;;;;;;7.62;100.00;100318.78;6248590;22;20377;-86
2021/12/24 05:15:40;;;;;;;51.92;28.15;;;;;;;7.22;100.00;100243.25;6248996;22;20007;-86
2021/12/24 05:23:21;;;;;;;51.78;26.60;;;;;;;7.65;100.00;100324.63;6275847;22;20015;-86
2021/12/24 05:25:50;;;;;;;46.47;25.48;;;;;;;7.66;100.00;100344.34;6276241;22;20004;-86
2021/12/24 05:28:16;;;;;;;51.47;26.80;;;;;;;7.62;100.00;100335.00;6248989;22;20338;-86
2021/12/24 05:30:42;;;;;;;47.47;24.58;;;;;;;7.60;100.00;100328.97;6223515;22;20359;-86
2021/12/24 05:33:12;;;;;;;48.63;25.23;;;;;;;7.46;100.00;100320.06;6249091;22;20007;-86
2021/12/24 05:35:38;;;;;;;49.47;25.33;;;;;;;7.61;100.00;100331.47;6224650;22;20035;-86
2021/12/24 05:38:04;;;;;;;46.25;23.73;;;;;;;7.37;100.00;100305.94;6275978;22;20011;-86
2021/12/24 05:40:30;;;;;;;42.55;22.67;;;;;;;7.03;100.00;100248.44;6276098;22;20316;-86
2021/12/24 05:42:55;;;;;;;43.38;23.13;;;;;;;7.41;100.00;100309.06;6223654;22;20011;-86
2021/12/24 05:45:24;;;;;;;45.10;22.48;;;;;;;7.38;100.00;100316.53;6223555;22;20030;-86
2021/12/24 05:47:49;;;;;;;49.60;21.90;;;;;;;7.35;100.00;100332.31;6223638;22;20003;-86
2021/12/24 05:50:14;;;;;;;42.88;21.08;;;;;;;7.46;100.00;100334.38;6223558;22;20411;-86
2021/12/24 05:52:40;;;;;;;38.30;20.33;;;;;;;7.48;100.00;100351.19;6223678;22;20038;-86
2021/12/24 05:55:06;;;;;;;45.42;20.02;;;;;;;7.45;100.00;100335.41;6248833;22;20008;-86
2021/12/24 05:57:32;;;;;;;39.08;20.05;;;;;;;7.42;100.00;100329.63;6223327;22;20008;-86
2021/12/24 05:59:57;;;;;;;42.22;19.30;;;;;;;7.36;100.00;100323.16;6223564;22;20054;-86
2021/12/24 06:02:23;;;;;;;45.30;20.05;;;;;;;7.36;100.00;100332.09;6275698;22;20656;-86
2021/12/24 06:04:48;;;;;;;40.58;18.40;;;;;;;7.46;100.00;100336.28;6249344;22;20011;-86
2021/12/24 06:07:17;;;;;;;39.45;18.85;;;;;;;7.47;100.00;100341.47;6223004;22;20018;-86
2021/12/24 06:09:42;;;;;;;38.95;18.10;;;;;;;7.36;100.00;100328.56;6248738;22;20003;-85
2021/12/24 06:12:08;;;;;;;40.97;18.17;;;;;;;7.51;100.00;100363.47;6248676;22;20030;-86
2021/12/24 06:14:33;;;;;;;40.83;17.88;;;;;;;7.37;100.00;100335.63;6223312;22;19999;-86
2021/12/24 06:17:04;;;;;;;41.00;19.27;;;;;;;7.52;100.00;100348.94;6248574;22;20015;-85
2021/12/24 06:19:30;;;;;;;42.28;18.20;;;;;;;7.51;100.00;100347.25;6248913;22;20014;-86
2021/12/24 06:21:58;;;;;;;36.85;17.90;;;;;;;7.24;100.00;100324.84;6275666;22;20074;-86
2021/12/24 06:24:24;;;;;;;38.03;17.10;;;;;;;7.32;100.00;100317.38;6248163;22;20018;-88
2021/12/24 06:26:52;;;;;;;38.92;17.98;;;;;;;7.41;100.00;100342.28;6223412;22;20453;-89
2021/12/24 06:29:24;;;;;;;36.25;17.20;;;;;;;7.44;100.00;100351.81;6224247;22;20008;-94
2021/12/24 06:36:22;;;;;;;36.15;16.40;;;;;;;6.93;100.00;100262.34;6279969;22;20807;-94
2021/12/24 06:43:07;;;;;;;;;;;;;;;;;;;;;
2021/12/24 08:43:06;;;;;;;41.22;18.80;;;;;;;6.85;100.00;100247.19;6246545;23;20074;-93
2021/12/24 08:45:44;;;;;;;39.57;19.03;;;;;;;7.09;100.00;100254.88;6220661;23;20383;-92
2021/12/24 08:48:18;;;;;;;38.92;18.85;;;;;;;7.45;100.00;100310.31;6194035;23;20283;-91
2021/12/24 08:50:45;;;;;;;45.00;19.33;;;;;;;7.22;100.00;100278.31;6219761;23;20428;-87
2021/12/24 08:53:57;;;;;;;47.78;21.65;;;;;;;7.12;100.00;100255.28;6196372;23;20008;-94
2021/12/24 08:56:49;;;;;;;47.83;21.38;;;;;;;7.68;100.00;100342.28;6155719;23;20392;-94
2021/12/24 09:02:42;;;;;;;45.20;22.50;;;;;;;7.13;100.00;100250.72;6217760;23;20012;-93
2021/12/24 09:13:03;;;;;;;46.70;23.60;;;;;;;7.24;100.00;100244.72;6215402;23;20332;-95
2021/12/24 10:22:20;;;;;;;56.15;27.05;;;;;;;7.64;100.00;100268.13;6093901;23;20006;-95
2021/12/24 10:25:06;;;;;;;50.72;27.38;;;;;;;7.81;100.00;100301.75;6095313;23;20010;-90
2021/12/24 10:27:34;;;;;;;50.35;27.85;;;;;;;8.08;100.00;100321.44;6211535;23;20012;-90
2021/12/24 10:30:17;;;;;;;52.70;27.17;;;;;;;7.88;100.00;100291.78;6214643;23;20038;-90
2021/12/24 10:32:53;;;;;;;51.05;25.58;;;;;;;7.64;100.00;100246.53;6188265;23;20015;-90
2021/12/24 10:35:25;;;;;;;49.10;26.02;;;;;;;7.59;100.00;100235.53;6214837;23;20013;-90
2021/12/24 10:38:19;;;;;;;;;;;;;;;;;;;;;
2021/12/24 10:41:08;;;;;;;48.78;26.60;;;;;;;8.14;100.00;100311.66;6214816;23;20083;-90
2021/12/24 10:43:39;;;;;;;50.78;26.92;;;;;;;8.10;100.00;100306.88;6214821;23;20012;-90
2021/12/24 10:46:22;;;;;;;53.55;29.52;;;;;;;7.66;100.00;100226.38;6187809;23;20014;-90
2021/12/24 10:49:02;;;;;;;58.63;31.08;;;;;;;7.88;100.00;100255.81;6214263;23;20083;-90
2021/12/24 10:55:08;;;;;;;57.10;32.47;;;;;;;8.23;100.00;100277.13;6167878;23;20009;-90
2021/12/24 10:57:36;;;;;;;64.10;34.25;;;;;;;7.93;100.00;100233.56;6188137;23;20327;-90
2021/12/24 11:00:09;;;;;;;68.03;37.30;;;;;;;8.45;100.00;100301.19;6187839;23;20016;-90
2021/12/24 11:02:36;;;;;;;60.80;36.78;;;;;;;7.92;100.00;100221.13;6212493;23;20051;-89
2021/12/24 11:05:03;;;;;;;64.90;38.38;;;;;;;7.91;100.00;100217.56;6214619;23;20005;-90
2021/12/24 11:07:43;;;;;;;74.70;38.40;;;;;;;7.94;100.00;100225.25;6188071;23;20059;-90
2021/12/24 11:10:30;;;;;;;65.60;39.03;;;;;;;8.26;100.00;100271.28;6188030;23;20013;-90
2021/12/24 11:12:59;;;;;;;67.63;38.75;;;;;;;7.98;100.00;100234.59;6214403;23;20016;-90
2021/12/24 11:15:31;;;;;;;66.53;39.13;;;;;;;7.98;100.00;100231.06;6187867;23;20050;-90
2021/12/24 11:18:20;;;;;;;65.57;40.35;;;;;;;8.51;100.00;100300.31;6187976;23;20087;-90
2021/12/24 11:20:55;;;;;;;73.18;40.60;;;;;;;8.04;100.00;100220.22;6179425;23;20005;-90
2021/12/24 11:23:25;;;;;;;69.97;40.00;;;;;;;8.43;100.00;100279.75;6189964;23;20009;-90
2021/12/24 11:25:57;;;;;;;65.70;40.22;;;;;;;8.62;100.00;100294.22;6214608;23;20013;-90
2021/12/24 11:28:41;;;;;;;70.57;41.30;;;;;;;8.27;100.00;100243.22;6216189;23;20436;-90
2021/12/24 11:31:13;;;;;;;66.32;40.55;;;;;;;8.08;100.00;100234.97;6216516;23;20055;-90
2021/12/24 11:33:42;;;;;;;64.93;39.20;;;;;;;8.12;100.00;100245.34;6189906;23;20474;-90
2021/12/24 11:36:12;;;;;;;66.78;40.53;;;;;;;8.43;100.00;100290.56;6216478;23;20111;-90
2021/12/24 11:38:41;;;;;;;69.20;39.45;;;;;;;8.39;100.00;100284.72;6215840;23;20001;-90
2021/12/24 11:41:28;;;;;;;71.50;39.47;;;;;;;8.01;100.00;100227.94;6189901;23;20008;-90
2021/12/24 11:43:56;;;;;;;68.75;39.78;;;;;;;8.06;100.00;100241.63;6216641;23;20009;-90
2021/12/24 11:46:29;;;;;;;65.68;38.85;;;;;;;7.98;100.00;100233.78;6216249;23;20008;-90
2021/12/24 11:48:55;;;;;;;58.88;36.00;;;;;;;8.11;100.00;100265.31;6214951;23;20009;-90
2021/12/24 11:51:25;;;;;;;67.00;38.65;;;;;;;8.29;100.00;100294.34;6218489;23;20028;-90
2021/12/24 11:53:53;;;;;;;67.25;38.50;;;;;;;8.07;100.00;100281.13;6188997;23;20015;-90
2021/12/24 11:56:39;;;;;;;67.05;38.03;;;;;;;7.96;100.00;100255.59;6189621;23;20008;-90
2021/12/24 11:59:05;;;;;;;67.97;38.53;;;;;;;7.76;100.00;100225.13;6189569;23;20078;-90
2021/12/24 12:01:57;;;;;;;67.18;37.67;;;;;;;7.88;100.00;100240.47;6189223;23;20427;-90
2021/12/24 12:04:25;;;;;;;62.88;37.03;;;;;;;7.89;100.00;100255.59;6188768;23;20063;-90
2021/12/24 12:07:10;;;;;;;66.82;38.03;;;;;;;7.66;100.00;100222.84;6189403;23;20095;-90
2021/12/24 12:09:46;;;;;;;62.33;36.08;;;;;;;7.93;100.00;100253.31;6216121;23;20080;-90
2021/12/24 12:12:16;;;;;;;58.97;37.78;;;;;;;7.89;100.00;100254.78;6188511;23;20005;-90
2021/12/24 12:14:42;;;;;;;67.10;37.63;;;;;;;7.67;100.00;100230.72;6214655;23;20009;-89
2021/12/24 12:17:08;;;;;;;59.42;37.22;;;;;;;7.71;100.00;100221.16;6189656;23;20012;-89
2021/12/24 12:25:00;;;;;;;65.95;37.70;;;;;;;7.91;100.00;100260.78;6226087;23;20023;-90
2021/12/24 12:27:52;;;;;;;68.55;36.15;;;;;;;7.64;100.00;100241.94;6188945;23;20090;-90
2021/12/24 12:30:22;;;;;;;62.05;35.70;;;;;;;7.93;100.00;100268.69;6188809;23;20004;-91
2021/12/24 12:32:52;;;;;;;66.25;35.83;;;;;;;7.85;100.00;100256.25;6188554;23;20384;-91
2021/12/24 12:35:18;;;;;;;66.50;37.85;;;;;;;7.68;100.00;100236.97;6215586;23;20004;-90
2021/12/24 12:37:50;;;;;;;70.53;38.58;;;;;;;7.88;100.00;100262.06;6214065;23;20409;-90
2021/12/24 12:40:15;;;;;;;72.50;37.10;;;;;;;8.00;100.00;100285.69;6215521;23;20012;-90
2021/12/24 12:45:20;;;;;;;62.65;38.05;;;;;;;7.72;100.00;100244.44;6215978;23;20474;-90
2021/12/24 12:47:58;;;;;;;70.90;37.58;;;;;;;8.04;100.00;100290.47;6188793;23;20091;-90
2021/12/24 12:50:25;;;;;;;71.85;37.67;;;;;;;7.64;100.00;100225.75;6215647;23;20015;-90
2021/12/24 12:53:11;;;;;;;67.50;38.42;;;;;;;7.45;100.00;100186.13;6188708;23;20016;-90
2021/12/24 12:55:37;;;;;;;70.05;37.90;;;;;;;7.67;100.00;100205.59;6215316;23;20494;-90
2021/12/24 12:58:23;;;;;;;68.10;33.67;;;;;;;7.92;100.00;100248.13;6164165;23;20040;-90
2021/12/24 13:01:05;;;;;;;57.63;34.20;;;;;;;8.15;100.00;100286.28;6188530;23;20189;-90
2021/12/24 13:03:33;;;;;;;64.03;34.83;;;;;;;7.79;100.00;100217.41;6188434;23;20013;-90
2021/12/24 13:06:04;;;;;;;55.53;32.88;;;;;;;7.62;100.00;100192.75;6215470;23;20004;-90
2021/12/24 13:08:33;;;;;;;57.17;33.53;;;;;;;7.71;100.00;100193.34;6189161;23;20431;-90
2021/12/24 13:11:11;;;;;;;57.03;33.65;;;;;;;7.76;100.00;100198.94;6215311;23;20023;-90
2021/12/24 13:13:57;;;;;;;55.92;31.63;;;;;;;8.20;100.00;100270.25;6213409;23;20012;-90
2021/12/24 13:16:42;;;;;;;46.28;25.75;;;;;;;7.82;100.00;100197.25;6214298;23;20092;-90
2021/12/24 13:24:39;;;;;;;50.00;31.40;;;;;;;7.82;100.00;100197.25;6215081;23;20039;-90
2021/12/24 13:27:05;;;;;;;60.47;33.55;;;;;;;8.41;100.00;100274.56;6214979;23;20004;-90
2021/12/24 13:29:31;;;;;;;54.65;31.88;;;;;;;8.34;100.00;100246.72;6188633;23;20463;-90
2021/12/24 13:32:10;;;;;;;;;;;;;;;;;;;;;
2021/12/24 13:34:54;;;;;;;52.72;31.83;;;;;;;8.07;100.00;100197.34;6214972;23;20406;-90
2021/12/24 13:37:20;;;;;;;49.33;32.03;;;;;;;7.95;100.00;100180.16;6213730;23;20005;-89
2021/12/24 13:40:08;;;;;;;56.90;33.08;;;;;;;8.18;100.00;100226.41;6188406;23;20046;-90
2021/12/24 13:43:12;;;;;;;57.10;32.55;;;;;;;8.51;100.00;100259.78;6163323;23;20031;-90
2021/12/24 13:45:40;;;;;;;53.80;32.55;;;;;;;8.28;100.00;100244.03;6188294;23;20013;-90
2021/12/24 13:48:30;;;;;;;51.90;30.98;;;;;;;8.13;100.00;100198.38;6188276;23;20009;-90
2021/12/24 13:56:22;;;;;;;47.13;24.23;;;;;;;8.10;100.00;100210.44;6244976;23;20042;-90
2021/12/24 13:58:57;;;;;;;44.88;26.63;;;;;;;8.48;100.00;100273.72;6245478;23;20114;-91
2021/12/24 14:01:25;;;;;;;44.40;23.75;;;;;;;8.23;100.00;100244.69;6245785;23;20008;-90
2021/12/24 14:03:51;;;;;;;42.22;21.85;;;;;;;7.93;100.00;100193.03;6245128;23;20348;-90
2021/12/24 14:06:17;;;;;;;38.03;21.67;;;;;;;8.18;100.00;100250.75;6218779;23;20058;-90
2021/12/24 14:10:08;;;;;;;39.05;19.48;;;;;;;7.84;100.00;100201.41;6244954;23;20015;-90
2021/12/24 14:12:22;;;;;;;39.97;18.40;;;;;;;7.92;100.00;100205.72;6229389;23;20008;-90
2021/12/24 14:15:22;;;;;;;35.03;17.35;;;;;;;7.95;100.00;100190.97;6218239;23;20019;-90
2021/12/24 14:18:09;;;;;;;31.67;17.10;;;;;;;8.14;100.00;100238.69;6245240;23;20014;-90
2021/12/24 14:23:20;;;;;;;32.95;17.52;;;;;;;8.35;100.00;100264.56;6245071;23;20015;-90
2021/12/24 14:25:57;;;;;;;41.25;18.08;;;;;;;8.13;100.00;100228.09;6218642;23;20011;-90
2021/12/24 14:28:24;;;;;;;33.13;17.00;;;;;;;7.95;100.00;100205.31;6218202;23;20012;-90
2021/12/24 14:31:01;;;;;;;34.20;16.75;;;;;;;8.28;100.00;100263.78;6193125;23;20015;-90
2021/12/24 14:33:27;;;;;;;35.70;17.55;;;;;;;8.08;100.00;100229.56;6244605;23;20435;-90
2021/12/24 14:36:07;;;;;;;;;;;;;;;;;;;;;
2021/12/24 14:38:35;;;;;;;37.67;17.73;;;;;;;7.79;100.00;100185.00;6244832;23;20075;-90
2021/12/24 14:41:01;;;;;;;36.17;17.20;;;;;;;8.07;100.00;100227.06;6218030;23;20062;-90
2021/12/24 14:43:33;;;;;;;36.15;17.23;;;;;;;8.08;100.00;100234.97;6244596;23;20533;-90
2021/12/24 14:46:05;;;;;;;;;;;;;;;8.23;100.00;100269.81;6245756;23;20439;-90
2021/12/24 14:49:02;;;;;;;36.22;16.45;;;;;;;7.67;100.00;100182.13;6217687;23;19907;-90
2021/12/24 14:51:30;;;;;;;39.15;17.90;;;;;;;8.19;100.00;100270.47;6244493;23;20004;-90
2021/12/24 14:54:04;;;;;;;38.08;16.88;;;;;;;7.79;100.00;100220.09;6245082;23;20505;-90
2021/12/24 14:56:36;;;;;;;41.28;18.05;;;;;;;7.92;100.00;100246.25;6218233;23;20004;-90
2021/12/24 14:59:02;;;;;;;39.35;17.50;;;;;;;7.54;100.00;100196.50;6218302;23;20090;-90
2021/12/24 15:01:39;;;;;;;40.50;17.20;;;;;;;7.99;100.00;100265.97;6218887;23;20395;-91
2021/12/24 15:04:06;;;;;;;33.75;16.45;;;;;;;7.45;100.00;100199.63;6220176;23;20423;-95
2021/12/24 15:06:56;;;;;;;36.58;17.15;;;;;;;8.01;100.00;100292.78;6218453;23;20038;-93
2021/12/24 15:09:38;;;;;;;38.33;17.83;;;;;;;7.41;100.00;100196.53;6219349;23;20004;-93
2021/12/24 15:12:33;;;;;;;34.92;16.85;;;;;;;7.49;100.00;100203.59;6219525;23;20091;-93
2021/12/24 15:15:06;;;;;;;37.85;17.98;;;;;;;8.00;100.00;100285.69;6221604;23;20234;-93
2021/12/24 15:17:42;;;;;;;37.95;16.85;;;;;;;7.81;100.00;100255.84;6220348;23;20056;-93
2021/12/24 15:20:09;;;;;;;37.28;18.45;;;;;;;7.47;100.00;100208.34;6219706;23;20008;-94
2021/12/24 15:22:38;;;;;;;41.63;18.45;;;;;;;7.74;100.00;100249.63;6223171;23;20427;-93
2021/12/24 15:25:12;;;;;;;43.95;19.85;;;;;;;7.75;100.00;100261.25;6251246;23;20004;-93
2021/12/24 15:27:38;;;;;;;48.65;22.17;;;;;;;7.32;100.00;100185.13;6198817;23;20024;-94
2021/12/24 15:30:12;;;;;;;45.80;23.40;;;;;;;7.41;100.00;100212.75;6196606;23;20012;-93
2021/12/24 15:32:39;;;;;;;47.00;23.80;;;;;;;7.75;100.00;100270.19;6220451;23;20339;-93
2021/12/24 15:35:10;;;;;;;45.60;24.98;;;;;;;7.65;100.00;100251.72;6244427;23;20331;-93
2021/12/24 15:37:36;;;;;;;45.50;26.50;;;;;;;7.45;100.00;100216.66;6219455;23;20008;-92
2021/12/24 15:40:02;;;;;;;52.03;27.35;;;;;;;7.44;100.00;100222.25;6245823;23;20061;-93
2021/12/24 15:42:29;;;;;;;53.58;29.88;;;;;;;7.37;100.00;100211.50;6220861;23;20008;-93
2021/12/24 15:44:55;;;;;;;54.63;31.85;;;;;;;7.61;100.00;100252.34;6219170;23;20090;-93
2021/12/24 15:47:21;;;;;;;59.55;31.95;;;;;;;7.33;100.00;100221.84;6219332;23;20501;-93
2021/12/24 15:49:47;;;;;;;55.45;33.05;;;;;;;7.55;100.00;100273.75;6219397;23;20326;-93
2021/12/24 15:52:15;;;;;;;66.38;34.67;;;;;;;7.35;100.00;100246.78;6194169;23;20119;-94
2021/12/24 15:54:59;;;;;;;59.28;34.67;;;;;;;7.71;100.00;100317.56;6218846;23;20019;-94
2021/12/24 15:57:28;;;;;;;66.55;35.95;;;;;;;7.14;100.00;100230.81;6219021;23;20461;-94
2021/12/24 16:02:49;;;;;;;69.07;38.10;;;;;;;7.14;100.00;100223.53;6247031;23;20095;-95
2021/12/24 16:05:16;;;;;;;73.13;37.88;;;;;;;7.44;100.00;100282.50;6218809;23;20011;-94
2021/12/24 16:07:43;;;;;;;73.43;39.13;;;;;;;7.05;100.00;100218.56;6220758;23;20008;-92
2021/12/24 16:10:15;;;;;;;69.07;39.30;;;;;;;7.02;100.00;100223.31;6195727;23;20047;-95
2021/12/24 16:12:56;;;;;;;73.57;40.53;;;;;;;6.98;100.00;100230.19;6221363;23;20439;-95
2021/12/24 16:16:18;;;;;;;;;;;;;;;;;;;;;
2021/12/24 16:19:45;;;;;;;;;;;;;;;;;;;;;
2021/12/24 16:22:59;;;;;;;;;;;;;;;;;;;;;
2021/12/24 16:25:38;;;;;;;;;;;;;;;;;;;;;
2021/12/24 16:28:13;;;;;;;75.00;39.53;;;;;;;7.15;100.00;100245.97;6247371;23;20100;-95
2021/12/24 16:30:42;;;;;;;75.72;39.22;;;;;;;7.07;100.00;100230.81;6220648;23;20008;-94
2021/12/24 16:33:11;;;;;;;69.68;38.85;;;;;;;7.12;100.00;100238.28;6220390;23;20339;-93
2021/12/24 16:35:37;;;;;;;74.70;40.47;;;;;;;7.27;100.00;100259.66;6220429;23;20034;-94
2021/12/24 16:38:09;;;;;;;78.10;39.30;;;;;;;7.08;100.00;100224.38;6195942;23;20012;-94
2021/12/24 16:40:40;;;;;;;76.15;38.28;;;;;;;7.01;100.00;100219.00;6220465;23;20019;-94
2021/12/24 16:43:11;;;;;;;71.70;38.78;;;;;;;7.55;100.00;100316.94;6190861;23;20021;-93
2021/12/24 16:45:55;;;;;;;74.47;38.28;;;;;;;7.37;100.00;100284.34;6216343;23;20005;-94
2021/12/24 16:48:20;;;;;;;69.00;38.50;;;;;;;7.05;100.00;100235.56;6190593;23;20009;-93
2021/12/24 16:50:47;;;;;;;75.53;38.90;;;;;;;7.05;100.00;100232.06;6189960;23;20012;-94
2021/12/24 16:53:13;;;;;;;73.97;38.78;;;;;;;7.02;100.00;100226.03;6190124;23;20340;-93
2021/12/24 16:55:49;;;;;;;74.22;39.67;;;;;;;7.37;100.00;100285.19;6190547;23;20016;-94
2021/12/24 16:58:17;;;;;;;79.55;40.08;;;;;;;7.05;100.00;100230.19;6190771;23;20423;-94
2021/12/24 17:00:48;;;;;;;79.50;40.90;;;;;;;7.37;100.00;100285.19;6190488;23;20013;-94
2021/12/24 17:03:17;;;;;;;73.55;38.78;;;;;;;7.14;100.00;100247.81;6191110;23;20000;-93
2021/12/24 17:05:54;;;;;;;76.40;40.30;;;;;;;7.03;100.00;100225.00;6190664;23;20012;-94
2021/12/24 17:08:21;;;;;;;74.32;40.13;;;;;;;7.05;100.00;100227.47;6215037;23;20020;-94
2021/12/24 17:10:46;;;;;;;80.13;41.03;;;;;;;7.00;100.00;100227.28;6190253;23;20027;-93
2021/12/24 17:13:12;;;;;;;80.47;40.72;;;;;;;6.98;100.00;100213.16;6190564;23;20008;-94
2021/12/24 17:15:42;;;;;;;77.32;38.95;;;;;;;6.97;100.00;100225.00;6190677;23;20042;-94
2021/12/24 17:18:08;;;;;;;81.47;41.40;;;;;;;7.01;100.00;100240.56;6190206;23;20009;-94
2021/12/24 17:20:36;;;;;;;83.00;42.38;;;;;;;6.88;100.00;100229.78;6190401;23;20067;-94
2021/12/24 17:23:22;;;;;;;84.95;40.08;;;;;;;7.12;100.00;100279.56;6190551;23;20004;-94